sensor_id;sensor_type;location;lat;lon;timestamp;P1;durP1;ratioP1;P2;durP2;ratioP2
11877;SDS011;5998;42.676;23.268;2023-07-29T00:01:58;3.07;;;2.80;;
11877;SDS011;5998;42.676;23.268;2023-07-29T00:04:24;2.77;;;2.53;;
11877;SDS011;5998;42.676;23.268;2023-07-29T00:06:51;4.07;;;2.67;;
11877;SDS011;5998;42.676;23.268;2023-07-29T00:09:17;3.10;;;2.80;;
11877;SDS011;5998;42.676;23.268;2023-07-29T00:11:43;4.47;;;2.60;;
11877;SDS011;5998;42.676;23.268;2023-07-29T00:14:11;3.27;;;2.50;;
11877;SDS011;5998;42.676;23.268;2023-07-29T00:16:38;2.87;;;2.50;;
11877;SDS011;5998;42.676;23.268;2023-07-29T00:19:04;5.20;;;2.70;;
11877;SDS011;5998;42.676;23.268;2023-07-29T00:21:31;2.77;;;2.50;;
11877;SDS011;5998;42.676;23.268;2023-07-29T00:23:57;3.33;;;2.80;;
11877;SDS011;5998;42.676;23.268;2023-07-29T00:26:23;5.57;;;3.20;;
11877;SDS011;5998;42.676;23.268;2023-07-29T00:28:51;4.20;;;2.50;;
11877;SDS011;5998;42.676;23.268;2023-07-29T00:31:18;2.80;;;2.60;;
11877;SDS011;5998;42.676;23.268;2023-07-29T00:33:45;2.80;;;2.60;;
11877;SDS011;5998;42.676;23.268;2023-07-29T00:36:11;3.40;;;2.60;;
11877;SDS011;5998;42.676;23.268;2023-07-29T00:38:38;2.90;;;2.60;;
11877;SDS011;5998;42.676;23.268;2023-07-29T00:41:04;3.20;;;2.87;;
11877;SDS011;5998;42.676;23.268;2023-07-29T00:43:31;2.80;;;2.60;;
11877;SDS011;5998;42.676;23.268;2023-07-29T00:45:58;3.57;;;2.90;;
11877;SDS011;5998;42.676;23.268;2023-07-29T00:48:27;4.93;;;2.90;;
11877;SDS011;5998;42.676;23.268;2023-07-29T00:50:53;5.13;;;2.90;;
11877;SDS011;5998;42.676;23.268;2023-07-29T00:53:20;4.47;;;3.10;;
11877;SDS011;5998;42.676;23.268;2023-07-29T00:55:47;5.63;;;2.87;;
11877;SDS011;5998;42.676;23.268;2023-07-29T00:58:13;4.90;;;3.10;;
11877;SDS011;5998;42.676;23.268;2023-07-29T01:00:39;7.27;;;3.50;;
11877;SDS011;5998;42.676;23.268;2023-07-29T01:03:06;6.40;;;3.30;;
11877;SDS011;5998;42.676;23.268;2023-07-29T01:05:36;5.03;;;2.80;;
11877;SDS011;5998;42.676;23.268;2023-07-29T01:08:06;4.60;;;2.90;;
11877;SDS011;5998;42.676;23.268;2023-07-29T01:10:37;4.40;;;2.77;;
11877;SDS011;5998;42.676;23.268;2023-07-29T01:13:06;5.67;;;2.70;;
11877;SDS011;5998;42.676;23.268;2023-07-29T01:15:38;6.13;;;2.93;;
11877;SDS011;5998;42.676;23.268;2023-07-29T01:18:08;3.20;;;2.90;;
11877;SDS011;5998;42.676;23.268;2023-07-29T01:20:38;3.63;;;2.83;;
11877;SDS011;5998;42.676;23.268;2023-07-29T01:23:06;4.93;;;3.20;;
11877;SDS011;5998;42.676;23.268;2023-07-29T01:25:34;4.87;;;2.87;;
11877;SDS011;5998;42.676;23.268;2023-07-29T01:28:00;4.87;;;3.10;;
11877;SDS011;5998;42.676;23.268;2023-07-29T01:30:28;3.37;;;3.07;;
11877;SDS011;5998;42.676;23.268;2023-07-29T01:32:58;4.03;;;2.90;;
11877;SDS011;5998;42.676;23.268;2023-07-29T01:35:27;3.20;;;2.90;;
11877;SDS011;5998;42.676;23.268;2023-07-29T01:37:55;4.17;;;3.07;;
11877;SDS011;5998;42.676;23.268;2023-07-29T01:40:22;4.20;;;2.80;;
11877;SDS011;5998;42.676;23.268;2023-07-29T01:42:50;4.97;;;3.70;;
11877;SDS011;5998;42.676;23.268;2023-07-29T01:45:17;11.07;;;3.80;;
11877;SDS011;5998;42.676;23.268;2023-07-29T01:47:43;8.30;;;3.43;;
11877;SDS011;5998;42.676;23.268;2023-07-29T01:50:10;7.37;;;4.03;;
11877;SDS011;5998;42.676;23.268;2023-07-29T01:52:36;7.47;;;3.60;;
11877;SDS011;5998;42.676;23.268;2023-07-29T01:55:03;4.70;;;3.47;;
11877;SDS011;5998;42.676;23.268;2023-07-29T01:57:30;7.37;;;3.33;;
11877;SDS011;5998;42.676;23.268;2023-07-29T01:59:57;5.93;;;3.93;;
11877;SDS011;5998;42.676;23.268;2023-07-29T02:02:24;5.33;;;3.97;;
11877;SDS011;5998;42.676;23.268;2023-07-29T02:04:50;5.43;;;3.57;;
11877;SDS011;5998;42.676;23.268;2023-07-29T02:07:17;10.83;;;3.40;;
11877;SDS011;5998;42.676;23.268;2023-07-29T02:09:44;6.50;;;3.30;;
11877;SDS011;5998;42.676;23.268;2023-07-29T02:12:10;6.07;;;3.63;;
11877;SDS011;5998;42.676;23.268;2023-07-29T02:14:37;3.57;;;3.20;;
11877;SDS011;5998;42.676;23.268;2023-07-29T02:17:04;12.00;;;4.03;;
11877;SDS011;5998;42.676;23.268;2023-07-29T02:19:31;8.20;;;4.27;;
11877;SDS011;5998;42.676;23.268;2023-07-29T02:21:57;7.67;;;3.73;;
11877;SDS011;5998;42.676;23.268;2023-07-29T02:24:24;5.80;;;4.00;;
11877;SDS011;5998;42.676;23.268;2023-07-29T02:26:50;7.60;;;3.90;;
11877;SDS011;5998;42.676;23.268;2023-07-29T02:29:16;10.17;;;4.20;;
11877;SDS011;5998;42.676;23.268;2023-07-29T02:31:43;6.37;;;3.63;;
11877;SDS011;5998;42.676;23.268;2023-07-29T02:34:11;5.17;;;3.70;;
11877;SDS011;5998;42.676;23.268;2023-07-29T02:36:38;3.67;;;3.37;;
11877;SDS011;5998;42.676;23.268;2023-07-29T02:39:04;4.30;;;3.43;;
11877;SDS011;5998;42.676;23.268;2023-07-29T02:41:31;4.23;;;3.37;;
11877;SDS011;5998;42.676;23.268;2023-07-29T02:43:58;3.53;;;3.17;;
11877;SDS011;5998;42.676;23.268;2023-07-29T02:46:25;6.23;;;3.47;;
11877;SDS011;5998;42.676;23.268;2023-07-29T02:48:51;9.13;;;4.00;;
11877;SDS011;5998;42.676;23.268;2023-07-29T02:51:19;14.73;;;4.27;;
11877;SDS011;5998;42.676;23.268;2023-07-29T02:53:45;10.27;;;4.50;;
11877;SDS011;5998;42.676;23.268;2023-07-29T02:56:12;6.40;;;3.80;;
11877;SDS011;5998;42.676;23.268;2023-07-29T02:58:38;8.43;;;3.80;;
11877;SDS011;5998;42.676;23.268;2023-07-29T03:01:05;11.30;;;4.70;;
11877;SDS011;5998;42.676;23.268;2023-07-29T03:03:32;24.00;;;5.77;;
11877;SDS011;5998;42.676;23.268;2023-07-29T03:05:59;11.93;;;5.00;;
11877;SDS011;5998;42.676;23.268;2023-07-29T03:08:26;14.50;;;4.63;;
11877;SDS011;5998;42.676;23.268;2023-07-29T03:10:53;8.47;;;4.37;;
11877;SDS011;5998;42.676;23.268;2023-07-29T03:13:20;9.40;;;4.00;;
11877;SDS011;5998;42.676;23.268;2023-07-29T03:15:46;10.80;;;4.30;;
11877;SDS011;5998;42.676;23.268;2023-07-29T03:18:13;7.60;;;4.27;;
11877;SDS011;5998;42.676;23.268;2023-07-29T03:20:39;7.17;;;5.07;;
11877;SDS011;5998;42.676;23.268;2023-07-29T03:23:05;18.87;;;5.17;;
11877;SDS011;5998;42.676;23.268;2023-07-29T03:25:33;9.17;;;4.80;;
11877;SDS011;5998;42.676;23.268;2023-07-29T03:28:00;12.87;;;5.47;;
11877;SDS011;5998;42.676;23.268;2023-07-29T03:30:26;6.83;;;5.10;;
11877;SDS011;5998;42.676;23.268;2023-07-29T03:32:52;9.83;;;5.37;;
11877;SDS011;5998;42.676;23.268;2023-07-29T03:35:19;16.03;;;5.97;;
11877;SDS011;5998;42.676;23.268;2023-07-29T03:37:45;7.27;;;5.60;;
11877;SDS011;5998;42.676;23.268;2023-07-29T03:40:12;14.13;;;6.30;;
11877;SDS011;5998;42.676;23.268;2023-07-29T03:42:40;17.73;;;7.63;;
11877;SDS011;5998;42.676;23.268;2023-07-29T03:45:07;11.17;;;7.20;;
11877;SDS011;5998;42.676;23.268;2023-07-29T03:47:33;10.97;;;6.73;;
11877;SDS011;5998;42.676;23.268;2023-07-29T03:50:00;9.53;;;6.53;;
11877;SDS011;5998;42.676;23.268;2023-07-29T03:52:26;12.90;;;6.37;;
11877;SDS011;5998;42.676;23.268;2023-07-29T03:54:52;13.00;;;7.27;;
11877;SDS011;5998;42.676;23.268;2023-07-29T03:57:19;8.37;;;5.93;;
11877;SDS011;5998;42.676;23.268;2023-07-29T03:59:47;8.00;;;5.17;;
11877;SDS011;5998;42.676;23.268;2023-07-29T04:02:13;8.87;;;4.93;;
11877;SDS011;5998;42.676;23.268;2023-07-29T04:04:40;7.60;;;4.37;;
11877;SDS011;5998;42.676;23.268;2023-07-29T04:07:07;10.70;;;3.97;;
11877;SDS011;5998;42.676;23.268;2023-07-29T04:09:33;5.40;;;4.00;;
11877;SDS011;5998;42.676;23.268;2023-07-29T04:12:00;8.23;;;4.33;;
11877;SDS011;5998;42.676;23.268;2023-07-29T04:14:26;4.40;;;3.70;;
11877;SDS011;5998;42.676;23.268;2023-07-29T04:16:54;6.03;;;3.93;;
11877;SDS011;5998;42.676;23.268;2023-07-29T04:19:20;5.93;;;4.23;;
11877;SDS011;5998;42.676;23.268;2023-07-29T04:21:47;3.97;;;3.67;;
11877;SDS011;5998;42.676;23.268;2023-07-29T04:24:15;3.90;;;3.50;;
11877;SDS011;5998;42.676;23.268;2023-07-29T04:26:42;5.00;;;3.63;;
11877;SDS011;5998;42.676;23.268;2023-07-29T04:29:11;4.10;;;3.70;;
11877;SDS011;5998;42.676;23.268;2023-07-29T04:31:37;7.77;;;4.10;;
11877;SDS011;5998;42.676;23.268;2023-07-29T04:34:05;8.30;;;3.90;;
11877;SDS011;5998;42.676;23.268;2023-07-29T04:36:32;3.90;;;3.50;;
11877;SDS011;5998;42.676;23.268;2023-07-29T04:38:58;4.10;;;3.63;;
11877;SDS011;5998;42.676;23.268;2023-07-29T04:41:25;5.57;;;3.43;;
11877;SDS011;5998;42.676;23.268;2023-07-29T04:43:51;4.63;;;3.77;;
11877;SDS011;5998;42.676;23.268;2023-07-29T04:46:17;4.50;;;3.70;;
11877;SDS011;5998;42.676;23.268;2023-07-29T04:48:44;5.47;;;4.17;;
11877;SDS011;5998;42.676;23.268;2023-07-29T04:51:12;4.60;;;4.20;;
11877;SDS011;5998;42.676;23.268;2023-07-29T04:53:38;4.50;;;4.10;;
11877;SDS011;5998;42.676;23.268;2023-07-29T04:56:04;9.10;;;4.60;;
11877;SDS011;5998;42.676;23.268;2023-07-29T04:58:31;5.23;;;4.73;;
11877;SDS011;5998;42.676;23.268;2023-07-29T05:01:00;6.47;;;4.47;;
11877;SDS011;5998;42.676;23.268;2023-07-29T05:03:27;7.67;;;4.53;;
11877;SDS011;5998;42.676;23.268;2023-07-29T05:05:53;4.97;;;4.30;;
11877;SDS011;5998;42.676;23.268;2023-07-29T05:08:22;5.57;;;4.27;;
11877;SDS011;5998;42.676;23.268;2023-07-29T05:10:48;6.97;;;4.60;;
11877;SDS011;5998;42.676;23.268;2023-07-29T05:13:15;5.50;;;4.93;;
11877;SDS011;5998;42.676;23.268;2023-07-29T05:15:42;6.57;;;4.73;;
11877;SDS011;5998;42.676;23.268;2023-07-29T05:18:08;7.00;;;4.70;;
11877;SDS011;5998;42.676;23.268;2023-07-29T05:20:35;5.77;;;3.83;;
11877;SDS011;5998;42.676;23.268;2023-07-29T05:23:01;7.07;;;4.43;;
11877;SDS011;5998;42.676;23.268;2023-07-29T05:25:29;9.20;;;5.33;;
11877;SDS011;5998;42.676;23.268;2023-07-29T05:27:55;8.07;;;4.73;;
11877;SDS011;5998;42.676;23.268;2023-07-29T05:30:22;7.70;;;4.77;;
11877;SDS011;5998;42.676;23.268;2023-07-29T05:32:48;11.20;;;5.00;;
11877;SDS011;5998;42.676;23.268;2023-07-29T05:35:15;6.37;;;4.60;;
11877;SDS011;5998;42.676;23.268;2023-07-29T05:37:41;7.03;;;5.30;;
11877;SDS011;5998;42.676;23.268;2023-07-29T05:40:08;5.43;;;4.93;;
11877;SDS011;5998;42.676;23.268;2023-07-29T05:42:36;6.73;;;4.60;;
11877;SDS011;5998;42.676;23.268;2023-07-29T05:45:02;4.83;;;4.20;;
11877;SDS011;5998;42.676;23.268;2023-07-29T05:47:29;13.30;;;4.17;;
11877;SDS011;5998;42.676;23.268;2023-07-29T05:49:55;6.67;;;3.70;;
11877;SDS011;5998;42.676;23.268;2023-07-29T05:52:21;10.67;;;5.13;;
11877;SDS011;5998;42.676;23.268;2023-07-29T05:54:48;8.23;;;4.60;;
11877;SDS011;5998;42.676;23.268;2023-07-29T05:57:15;6.10;;;4.87;;
11877;SDS011;5998;42.676;23.268;2023-07-29T05:59:42;7.10;;;4.77;;
11877;SDS011;5998;42.676;23.268;2023-07-29T06:02:09;13.03;;;6.17;;
11877;SDS011;5998;42.676;23.268;2023-07-29T06:04:35;10.57;;;5.17;;
11877;SDS011;5998;42.676;23.268;2023-07-29T06:07:02;7.53;;;4.40;;
11877;SDS011;5998;42.676;23.268;2023-07-29T06:09:28;7.80;;;4.70;;
11877;SDS011;5998;42.676;23.268;2023-07-29T06:11:54;7.63;;;4.63;;
11877;SDS011;5998;42.676;23.268;2023-07-29T06:14:21;6.17;;;4.67;;
11877;SDS011;5998;42.676;23.268;2023-07-29T06:16:49;6.17;;;4.83;;
11877;SDS011;5998;42.676;23.268;2023-07-29T06:19:15;11.67;;;5.83;;
11877;SDS011;5998;42.676;23.268;2023-07-29T06:21:42;7.93;;;4.47;;
11877;SDS011;5998;42.676;23.268;2023-07-29T06:24:08;5.40;;;4.23;;
11877;SDS011;5998;42.676;23.268;2023-07-29T06:26:34;6.07;;;4.80;;
11877;SDS011;5998;42.676;23.268;2023-07-29T06:29:01;7.20;;;4.67;;
11877;SDS011;5998;42.676;23.268;2023-07-29T06:31:27;5.53;;;4.43;;
11877;SDS011;5998;42.676;23.268;2023-07-29T06:33:55;8.03;;;5.83;;
11877;SDS011;5998;42.676;23.268;2023-07-29T06:36:22;5.33;;;4.40;;
11877;SDS011;5998;42.676;23.268;2023-07-29T06:38:48;9.77;;;7.00;;
11877;SDS011;5998;42.676;23.268;2023-07-29T06:41:15;9.80;;;4.80;;
11877;SDS011;5998;42.676;23.268;2023-07-29T06:43:41;6.67;;;5.20;;
11877;SDS011;5998;42.676;23.268;2023-07-29T06:46:08;6.93;;;4.80;;
11877;SDS011;5998;42.676;23.268;2023-07-29T06:48:34;12.30;;;5.07;;
11877;SDS011;5998;42.676;23.268;2023-07-29T06:51:02;5.50;;;4.93;;
11877;SDS011;5998;42.676;23.268;2023-07-29T06:53:28;8.47;;;5.03;;
11877;SDS011;5998;42.676;23.268;2023-07-29T06:55:55;9.37;;;4.90;;
11877;SDS011;5998;42.676;23.268;2023-07-29T06:58:21;9.30;;;5.20;;
11877;SDS011;5998;42.676;23.268;2023-07-29T07:00:48;5.67;;;4.40;;
11877;SDS011;5998;42.676;23.268;2023-07-29T07:03:14;5.75;;;5.20;;
11877;SDS011;5998;42.676;23.268;2023-07-29T07:05:41;6.47;;;4.70;;
11877;SDS011;5998;42.676;23.268;2023-07-29T07:08:08;6.73;;;4.87;;
11877;SDS011;5998;42.676;23.268;2023-07-29T07:10:35;7.60;;;4.50;;
11877;SDS011;5998;42.676;23.268;2023-07-29T07:13:01;7.20;;;4.37;;
11877;SDS011;5998;42.676;23.268;2023-07-29T07:15:28;6.03;;;4.18;;
11877;SDS011;5998;42.676;23.268;2023-07-29T07:17:54;7.17;;;4.27;;
11877;SDS011;5998;42.676;23.268;2023-07-29T07:20:21;6.60;;;4.50;;
11877;SDS011;5998;42.676;23.268;2023-07-29T07:22:47;6.35;;;4.47;;
11877;SDS011;5998;42.676;23.268;2023-07-29T07:25:15;4.80;;;4.37;;
11877;SDS011;5998;42.676;23.268;2023-07-29T07:27:41;3.50;;;3.20;;
11877;SDS011;5998;42.676;23.268;2023-07-29T07:30:08;6.68;;;3.80;;
11877;SDS011;5998;42.676;23.268;2023-07-29T07:32:35;5.67;;;3.23;;
11877;SDS011;5998;42.676;23.268;2023-07-29T07:35:02;4.72;;;3.58;;
11877;SDS011;5998;42.676;23.268;2023-07-29T07:37:29;5.63;;;3.72;;
11877;SDS011;5998;42.676;23.268;2023-07-29T07:39:55;4.75;;;3.42;;
11877;SDS011;5998;42.676;23.268;2023-07-29T07:42:24;3.72;;;3.42;;
11877;SDS011;5998;42.676;23.268;2023-07-29T07:44:50;6.10;;;4.00;;
11877;SDS011;5998;42.676;23.268;2023-07-29T07:47:16;4.72;;;4.20;;
11877;SDS011;5998;42.676;23.268;2023-07-29T07:49:43;6.35;;;4.63;;
11877;SDS011;5998;42.676;23.268;2023-07-29T07:52:09;4.40;;;4.00;;
11877;SDS011;5998;42.676;23.268;2023-07-29T07:54:36;3.70;;;3.22;;
11877;SDS011;5998;42.676;23.268;2023-07-29T07:57:02;4.35;;;3.97;;
11877;SDS011;5998;42.676;23.268;2023-07-29T07:59:30;5.55;;;4.05;;
11877;SDS011;5998;42.676;23.268;2023-07-29T08:01:56;4.80;;;3.92;;
11877;SDS011;5998;42.676;23.268;2023-07-29T08:04:22;4.95;;;4.03;;
11877;SDS011;5998;42.676;23.268;2023-07-29T08:06:49;5.78;;;4.35;;
11877;SDS011;5998;42.676;23.268;2023-07-29T08:09:15;6.20;;;5.00;;
11877;SDS011;5998;42.676;23.268;2023-07-29T08:11:41;8.30;;;4.53;;
11877;SDS011;5998;42.676;23.268;2023-07-29T08:14:08;5.32;;;4.30;;
11877;SDS011;5998;42.676;23.268;2023-07-29T08:16:35;6.10;;;3.75;;
11877;SDS011;5998;42.676;23.268;2023-07-29T08:19:02;9.13;;;4.45;;
11877;SDS011;5998;42.676;23.268;2023-07-29T08:21:29;5.55;;;3.72;;
11877;SDS011;5998;42.676;23.268;2023-07-29T08:23:55;5.95;;;3.95;;
11877;SDS011;5998;42.676;23.268;2023-07-29T08:26:21;9.75;;;4.03;;
11877;SDS011;5998;42.676;23.268;2023-07-29T08:28:48;4.72;;;3.72;;
11877;SDS011;5998;42.676;23.268;2023-07-29T08:31:14;5.60;;;4.00;;
11877;SDS011;5998;42.676;23.268;2023-07-29T08:33:42;5.82;;;3.90;;
11877;SDS011;5998;42.676;23.268;2023-07-29T08:36:09;4.85;;;3.38;;
11877;SDS011;5998;42.676;23.268;2023-07-29T08:38:35;6.32;;;4.07;;
11877;SDS011;5998;42.676;23.268;2023-07-29T08:41:04;5.18;;;3.22;;
11877;SDS011;5998;42.676;23.268;2023-07-29T08:43:32;7.00;;;3.65;;
11877;SDS011;5998;42.676;23.268;2023-07-29T08:45:59;4.95;;;3.25;;
11877;SDS011;5998;42.676;23.268;2023-07-29T08:48:28;6.78;;;3.28;;
11877;SDS011;5998;42.676;23.268;2023-07-29T08:50:59;4.15;;;3.22;;
11877;SDS011;5998;42.676;23.268;2023-07-29T08:53:25;4.10;;;2.80;;
11877;SDS011;5998;42.676;23.268;2023-07-29T08:55:52;5.35;;;2.80;;
11877;SDS011;5998;42.676;23.268;2023-07-29T08:58:20;4.93;;;2.95;;
11877;SDS011;5998;42.676;23.268;2023-07-29T09:00:47;5.47;;;3.15;;
11877;SDS011;5998;42.676;23.268;2023-07-29T09:03:14;3.70;;;3.00;;
11877;SDS011;5998;42.676;23.268;2023-07-29T09:05:40;2.63;;;2.42;;
11877;SDS011;5998;42.676;23.268;2023-07-29T09:08:08;2.40;;;2.20;;
11877;SDS011;5998;42.676;23.268;2023-07-29T09:10:35;3.53;;;2.03;;
11877;SDS011;5998;42.676;23.268;2023-07-29T09:13:01;6.05;;;2.65;;
11877;SDS011;5998;42.676;23.268;2023-07-29T09:15:28;3.53;;;2.30;;
11877;SDS011;5998;42.676;23.268;2023-07-29T09:17:56;4.28;;;2.70;;
11877;SDS011;5998;42.676;23.268;2023-07-29T09:20:25;5.45;;;2.80;;
11877;SDS011;5998;42.676;23.268;2023-07-29T09:22:52;3.00;;;2.70;;
11877;SDS011;5998;42.676;23.268;2023-07-29T09:25:23;6.60;;;2.58;;
11877;SDS011;5998;42.676;23.268;2023-07-29T09:27:50;3.15;;;2.67;;
11877;SDS011;5998;42.676;23.268;2023-07-29T09:30:16;3.65;;;2.75;;
11877;SDS011;5998;42.676;23.268;2023-07-29T09:32:43;2.83;;;2.67;;
11877;SDS011;5998;42.676;23.268;2023-07-29T09:35:09;2.75;;;2.47;;
11877;SDS011;5998;42.676;23.268;2023-07-29T09:37:37;3.60;;;2.33;;
11877;SDS011;5998;42.676;23.268;2023-07-29T09:40:04;4.25;;;2.55;;
11877;SDS011;5998;42.676;23.268;2023-07-29T09:42:32;3.63;;;2.70;;
11877;SDS011;5998;42.676;23.268;2023-07-29T09:44:59;2.78;;;2.42;;
11877;SDS011;5998;42.676;23.268;2023-07-29T09:47:26;3.05;;;2.63;;
11877;SDS011;5998;42.676;23.268;2023-07-29T09:49:52;6.38;;;2.33;;
11877;SDS011;5998;42.676;23.268;2023-07-29T09:52:20;3.97;;;2.70;;
11877;SDS011;5998;42.676;23.268;2023-07-29T09:54:47;4.45;;;2.40;;
11877;SDS011;5998;42.676;23.268;2023-07-29T09:57:14;2.80;;;2.22;;
11877;SDS011;5998;42.676;23.268;2023-07-29T09:59:42;2.42;;;2.22;;
11877;SDS011;5998;42.676;23.268;2023-07-29T10:02:09;6.50;;;2.60;;
11877;SDS011;5998;42.676;23.268;2023-07-29T10:04:39;6.13;;;2.40;;
11877;SDS011;5998;42.676;23.268;2023-07-29T10:07:06;2.85;;;2.17;;
11877;SDS011;5998;42.676;23.268;2023-07-29T10:09:32;4.00;;;2.00;;
11877;SDS011;5998;42.676;23.268;2023-07-29T10:11:59;3.17;;;2.53;;
11877;SDS011;5998;42.676;23.268;2023-07-29T10:14:26;2.72;;;1.90;;
11877;SDS011;5998;42.676;23.268;2023-07-29T10:16:55;3.08;;;1.90;;
11877;SDS011;5998;42.676;23.268;2023-07-29T10:19:22;4.55;;;1.90;;
11877;SDS011;5998;42.676;23.268;2023-07-29T10:21:50;2.38;;;1.90;;
11877;SDS011;5998;42.676;23.268;2023-07-29T10:24:18;5.15;;;2.65;;
11877;SDS011;5998;42.676;23.268;2023-07-29T10:26:46;3.53;;;1.83;;
11877;SDS011;5998;42.676;23.268;2023-07-29T10:29:13;2.35;;;1.95;;
11877;SDS011;5998;42.676;23.268;2023-07-29T10:31:44;2.25;;;1.92;;
11877;SDS011;5998;42.676;23.268;2023-07-29T10:34:13;2.08;;;1.90;;
11877;SDS011;5998;42.676;23.268;2023-07-29T10:36:40;2.78;;;1.95;;
11877;SDS011;5998;42.676;23.268;2023-07-29T10:39:07;3.05;;;2.00;;
11877;SDS011;5998;42.676;23.268;2023-07-29T10:41:54;2.03;;;1.80;;
11877;SDS011;5998;42.676;23.268;2023-07-29T10:47:10;4.22;;;1.98;;
11877;SDS011;5998;42.676;23.268;2023-07-29T10:49:39;2.55;;;1.70;;
11877;SDS011;5998;42.676;23.268;2023-07-29T10:52:06;3.28;;;2.00;;
11877;SDS011;5998;42.676;23.268;2023-07-29T10:54:34;2.53;;;1.60;;
11877;SDS011;5998;42.676;23.268;2023-07-29T10:57:07;3.10;;;1.70;;
11877;SDS011;5998;42.676;23.268;2023-07-29T10:59:34;1.60;;;1.50;;
11877;SDS011;5998;42.676;23.268;2023-07-29T11:02:01;5.15;;;1.80;;
11877;SDS011;5998;42.676;23.268;2023-07-29T11:04:27;4.90;;;1.90;;
11877;SDS011;5998;42.676;23.268;2023-07-29T11:10:00;1.60;;;1.50;;
11877;SDS011;5998;42.676;23.268;2023-07-29T11:12:36;1.58;;;1.30;;
11877;SDS011;5998;42.676;23.268;2023-07-29T11:15:04;4.65;;;1.80;;
11877;SDS011;5998;42.676;23.268;2023-07-29T11:17:31;3.17;;;1.70;;
11877;SDS011;5998;42.676;23.268;2023-07-29T11:19:58;1.70;;;1.50;;
11877;SDS011;5998;42.676;23.268;2023-07-29T11:22:26;1.88;;;1.17;;
11877;SDS011;5998;42.676;23.268;2023-07-29T11:24:52;1.50;;;1.40;;
11877;SDS011;5998;42.676;23.268;2023-07-29T11:27:20;1.58;;;1.48;;
11877;SDS011;5998;42.676;23.268;2023-07-29T11:29:46;2.05;;;1.70;;
11877;SDS011;5998;42.676;23.268;2023-07-29T11:32:13;4.07;;;1.60;;
11877;SDS011;5998;42.676;23.268;2023-07-29T11:34:40;1.85;;;1.65;;
11877;SDS011;5998;42.676;23.268;2023-07-29T11:37:08;2.20;;;1.40;;
11877;SDS011;5998;42.676;23.268;2023-07-29T11:39:39;1.65;;;1.48;;
11877;SDS011;5998;42.676;23.268;2023-07-29T11:42:05;1.70;;;1.42;;
11877;SDS011;5998;42.676;23.268;2023-07-29T11:44:33;3.15;;;1.67;;
11877;SDS011;5998;42.676;23.268;2023-07-29T11:46:59;1.77;;;1.65;;
11877;SDS011;5998;42.676;23.268;2023-07-29T11:49:26;1.90;;;1.70;;
11877;SDS011;5998;42.676;23.268;2023-07-29T11:51:52;5.97;;;1.70;;
11877;SDS011;5998;42.676;23.268;2023-07-29T11:54:19;5.80;;;1.90;;
11877;SDS011;5998;42.676;23.268;2023-07-29T11:56:46;1.85;;;1.50;;
11877;SDS011;5998;42.676;23.268;2023-07-29T11:59:14;3.42;;;1.77;;
11877;SDS011;5998;42.676;23.268;2023-07-29T12:01:41;3.88;;;1.70;;
11877;SDS011;5998;42.676;23.268;2023-07-29T12:04:08;2.38;;;1.70;;
11877;SDS011;5998;42.676;23.268;2023-07-29T12:06:35;2.20;;;1.83;;
11877;SDS011;5998;42.676;23.268;2023-07-29T12:09:01;5.88;;;2.03;;
11877;SDS011;5998;42.676;23.268;2023-07-29T12:11:28;1.65;;;1.52;;
11877;SDS011;5998;42.676;23.268;2023-07-29T12:13:54;2.75;;;1.90;;
11877;SDS011;5998;42.676;23.268;2023-07-29T12:16:21;4.30;;;1.90;;
11877;SDS011;5998;42.676;23.268;2023-07-29T12:18:49;1.65;;;1.55;;
11877;SDS011;5998;42.676;23.268;2023-07-29T12:21:16;1.65;;;1.55;;
11877;SDS011;5998;42.676;23.268;2023-07-29T12:23:43;1.65;;;1.52;;
11877;SDS011;5998;42.676;23.268;2023-07-29T12:26:09;4.75;;;1.75;;
11877;SDS011;5998;42.676;23.268;2023-07-29T12:28:36;1.60;;;1.50;;
11877;SDS011;5998;42.676;23.268;2023-07-29T12:31:06;2.40;;;1.50;;
11877;SDS011;5998;42.676;23.268;2023-07-29T12:33:33;1.98;;;1.80;;
11877;SDS011;5998;42.676;23.268;2023-07-29T12:36:01;2.88;;;1.70;;
11877;SDS011;5998;42.676;23.268;2023-07-29T12:38:28;1.75;;;1.65;;
11877;SDS011;5998;42.676;23.268;2023-07-29T12:40:55;3.65;;;1.70;;
11877;SDS011;5998;42.676;23.268;2023-07-29T12:43:21;1.70;;;1.60;;
11877;SDS011;5998;42.676;23.268;2023-07-29T12:45:49;3.47;;;1.52;;
11877;SDS011;5998;42.676;23.268;2023-07-29T12:48:15;1.95;;;1.83;;
11877;SDS011;5998;42.676;23.268;2023-07-29T12:50:42;2.47;;;1.70;;
11877;SDS011;5998;42.676;23.268;2023-07-29T12:53:09;2.75;;;1.80;;
11877;SDS011;5998;42.676;23.268;2023-07-29T12:55:36;1.80;;;1.70;;
11877;SDS011;5998;42.676;23.268;2023-07-29T12:58:02;2.97;;;1.80;;
11877;SDS011;5998;42.676;23.268;2023-07-29T13:00:29;1.70;;;1.60;;
11877;SDS011;5998;42.676;23.268;2023-07-29T13:02:55;4.28;;;1.50;;
11877;SDS011;5998;42.676;23.268;2023-07-29T13:05:22;1.52;;;1.42;;
11877;SDS011;5998;42.676;23.268;2023-07-29T13:07:48;1.80;;;1.70;;
11877;SDS011;5998;42.676;23.268;2023-07-29T13:10:16;1.90;;;1.70;;
11877;SDS011;5998;42.676;23.268;2023-07-29T13:12:43;2.70;;;1.73;;
11877;SDS011;5998;42.676;23.268;2023-07-29T13:15:10;2.05;;;1.50;;
11877;SDS011;5998;42.676;23.268;2023-07-29T13:17:36;1.67;;;1.58;;
11877;SDS011;5998;42.676;23.268;2023-07-29T13:20:04;1.92;;;1.60;;
11877;SDS011;5998;42.676;23.268;2023-07-29T13:22:31;1.65;;;1.23;;
11877;SDS011;5998;42.676;23.268;2023-07-29T13:24:58;1.80;;;1.70;;
11877;SDS011;5998;42.676;23.268;2023-07-29T13:27:25;2.05;;;1.95;;
11877;SDS011;5998;42.676;23.268;2023-07-29T13:29:52;3.97;;;1.80;;
11877;SDS011;5998;42.676;23.268;2023-07-29T13:32:18;3.13;;;1.70;;
11877;SDS011;5998;42.676;23.268;2023-07-29T13:34:45;2.75;;;1.80;;
11877;SDS011;5998;42.676;23.268;2023-07-29T13:37:11;1.73;;;1.63;;
11877;SDS011;5998;42.676;23.268;2023-07-29T13:39:38;2.00;;;1.90;;
11877;SDS011;5998;42.676;23.268;2023-07-29T13:42:04;2.90;;;2.42;;
11877;SDS011;5998;42.676;23.268;2023-07-29T13:44:32;5.20;;;2.67;;
11877;SDS011;5998;42.676;23.268;2023-07-29T13:46:59;2.97;;;2.70;;
11877;SDS011;5998;42.676;23.268;2023-07-29T13:49:25;4.25;;;2.90;;
11877;SDS011;5998;42.676;23.268;2023-07-29T13:51:51;4.35;;;2.60;;
11877;SDS011;5998;42.676;23.268;2023-07-29T13:54:18;3.80;;;2.90;;
11877;SDS011;5998;42.676;23.268;2023-07-29T13:56:44;4.63;;;2.95;;
11877;SDS011;5998;42.676;23.268;2023-07-29T13:59:11;3.50;;;3.20;;
11877;SDS011;5998;42.676;23.268;2023-07-29T14:01:38;3.30;;;2.55;;
11877;SDS011;5998;42.676;23.268;2023-07-29T14:04:05;2.60;;;2.40;;
11877;SDS011;5998;42.676;23.268;2023-07-29T14:06:32;6.05;;;2.92;;
11877;SDS011;5998;42.676;23.268;2023-07-29T14:08:58;4.75;;;2.45;;
11877;SDS011;5998;42.676;23.268;2023-07-29T14:11:24;2.30;;;2.10;;
11877;SDS011;5998;42.676;23.268;2023-07-29T14:13:51;2.75;;;2.20;;
11877;SDS011;5998;42.676;23.268;2023-07-29T14:16:17;4.97;;;3.13;;
11877;SDS011;5998;42.676;23.268;2023-07-29T14:18:45;3.90;;;3.45;;
11877;SDS011;5998;42.676;23.268;2023-07-29T14:21:12;4.13;;;3.20;;
11877;SDS011;5998;42.676;23.268;2023-07-29T14:23:38;5.55;;;3.00;;
11877;SDS011;5998;42.676;23.268;2023-07-29T14:26:05;5.43;;;2.10;;
11877;SDS011;5998;42.676;23.268;2023-07-29T14:28:34;2.13;;;2.00;;
11877;SDS011;5998;42.676;23.268;2023-07-29T14:31:01;3.28;;;2.00;;
11877;SDS011;5998;42.676;23.268;2023-07-29T14:33:27;4.22;;;2.20;;
11877;SDS011;5998;42.676;23.268;2023-07-29T14:35:55;2.70;;;2.00;;
11877;SDS011;5998;42.676;23.268;2023-07-29T14:38:21;2.47;;;2.28;;
11877;SDS011;5998;42.676;23.268;2023-07-29T14:40:48;3.38;;;2.58;;
11877;SDS011;5998;42.676;23.268;2023-07-29T14:43:16;2.15;;;2.05;;
11877;SDS011;5998;42.676;23.268;2023-07-29T14:45:42;2.40;;;2.25;;
11877;SDS011;5998;42.676;23.268;2023-07-29T14:48:08;2.20;;;2.00;;
11877;SDS011;5998;42.676;23.268;2023-07-29T14:50:35;1.88;;;1.77;;